Time;durP1;ratioP1;P1;durP2;ratioP2;P2;SDS_P1;SDS_P2;PMS_P1;PMS_P2;Temp;Humidity;BMP_temperature;BMP_pressure;BME280_temperature;BME280_humidity;BME280_pressure;Samples;Min_cycle;Max_cycle;Signal;HPM_P1;HPM_P2
2021/10/19 00:01:00;;;;;;;32.08;18.58;;;;;;;6.67;100.00;99116.78;4952569;28;20165;-78
2021/10/19 00:03:26;;;;;;;31.23;19.80;;;;;;;6.55;100.00;99124.16;4946122;28;20031;-78
2021/10/19 00:05:52;;;;;;;29.63;19.25;;;;;;;6.65;100.00;99117.00;4953980;28;20027;-78
2021/10/19 00:08:17;;;;;;;27.27;18.05;;;;;;;6.60;100.00;99121.53;4953857;28;20078;-77
2021/10/19 00:10:43;;;;;;;30.42;20.33;;;;;;;6.46;100.00;99118.22;4949569;28;20503;-79
2021/10/19 00:13:09;;;;;;;28.20;18.90;;;;;;;6.45;100.00;99116.59;4956443;28;20031;-78
2021/10/19 00:15:34;;;;;;;30.77;19.90;;;;;;;6.44;100.00;99113.06;4950222;28;20055;-78
2021/10/19 00:17:59;;;;;;;27.35;18.85;;;;;;;6.42;100.00;99115.16;4953052;28;20031;-78
2021/10/19 00:20:25;;;;;;;27.98;18.38;;;;;;;6.53;100.00;99118.94;4953023;28;20540;-78
2021/10/19 00:22:50;;;;;;;28.48;18.08;;;;;;;6.57;100.00;99119.28;4952955;28;20023;-78
2021/10/19 00:25:17;;;;;;;28.13;18.55;;;;;;;6.62;100.00;99124.81;4953479;28;20090;-77
2021/10/19 00:27:43;;;;;;;31.88;18.33;;;;;;;6.55;100.00;99129.59;4953848;28;20476;-77
2021/10/19 00:30:10;;;;;;;28.35;19.05;;;;;;;6.36;100.00;99128.88;4951065;28;20063;-77
2021/10/19 00:32:36;;;;;;;30.33;19.00;;;;;;;6.24;100.00;99109.06;4961539;28;20053;-77
2021/10/19 00:35:04;;;;;;;29.40;19.95;;;;;;;6.36;100.00;99124.28;4989903;28;20039;-77
2021/10/19 00:37:30;;;;;;;32.00;20.00;;;;;;;6.22;100.00;99122.06;4985402;28;20046;-77
2021/10/19 00:39:55;;;;;;;30.38;19.85;;;;;;;6.09;100.00;99123.16;4974306;28;20373;-77
2021/10/19 00:42:20;;;;;;;30.15;20.98;;;;;;;6.04;100.00;99117.63;4974490;28;20025;-77
2021/10/19 00:44:46;;;;;;;31.92;20.90;;;;;;;6.19;100.00;99117.13;4967517;28;20027;-77
2021/10/19 00:47:19;;;;;;;30.10;19.35;;;;;;;6.14;100.00;99115.09;4972155;28;20512;-77
2021/10/19 00:49:45;;;;;;;28.25;20.17;;;;;;;6.20;100.00;99126.94;4966469;28;20047;-77
2021/10/19 00:52:12;;;;;;;31.25;18.90;;;;;;;6.12;100.00;99133.53;4972366;28;20023;-77
2021/10/19 00:54:37;;;;;;;27.30;19.38;;;;;;;6.20;100.00;99133.16;4973601;28;20031;-77
2021/10/19 00:57:03;;;;;;;26.50;18.48;;;;;;;6.20;100.00;99119.56;4979980;28;20054;-77
2021/10/19 00:59:30;;;;;;;28.52;19.02;;;;;;;6.19;100.00;99126.09;4970346;28;20081;-78
2021/10/19 01:01:56;;;;;;;27.33;18.13;;;;;;;6.20;100.00;99108.72;4975951;28;20018;-78
2021/10/19 01:04:21;;;;;;;28.70;19.83;;;;;;;6.19;100.00;99127.97;4976211;28;20015;-78
2021/10/19 01:06:46;;;;;;;28.60;18.35;;;;;;;6.08;100.00;99126.09;4975962;28;20019;-78
2021/10/19 01:09:12;;;;;;;26.15;17.58;;;;;;;6.10;100.00;99104.97;4957761;28;20384;-78
2021/10/19 01:11:38;;;;;;;29.42;20.58;;;;;;;5.93;100.00;99107.56;4950646;28;20015;-78
2021/10/19 01:14:04;;;;;;;29.17;20.15;;;;;;;5.82;100.00;99102.94;4956775;28;20044;-77
2021/10/19 01:16:29;;;;;;;29.92;19.05;;;;;;;5.99;100.00;99103.91;4956294;28;20031;-77
2021/10/19 01:18:55;;;;;;;28.77;18.50;;;;;;;6.05;100.00;99110.25;4956183;28;20023;-77
2021/10/19 01:21:20;;;;;;;29.15;18.13;;;;;;;6.01;100.00;99104.50;4947917;28;20441;-77
2021/10/19 01:23:46;;;;;;;29.05;18.30;;;;;;;5.97;100.00;99097.91;4954354;28;20027;-77
2021/10/19 01:26:11;;;;;;;29.15;17.52;;;;;;;5.93;100.00;99097.53;4956181;28;20700;-77
2021/10/19 01:28:42;;;;;;;26.75;17.95;;;;;;;5.94;100.00;99095.66;4956088;28;20484;-77
2021/10/19 01:31:08;;;;;;;25.15;16.73;;;;;;;6.01;100.00;99096.38;4956444;28;20086;-77
2021/10/19 01:33:34;;;;;;;28.08;17.95;;;;;;;6.07;100.00;99100.00;4949393;28;20100;-77
2021/10/19 01:35:59;;;;;;;25.15;17.52;;;;;;;6.04;100.00;99101.31;4957279;28;20035;-77
2021/10/19 01:38:27;;;;;;;24.48;17.05;;;;;;;5.96;100.00;99095.41;4956486;28;20118;-77
2021/10/19 01:40:54;;;;;;;22.58;16.23;;;;;;;5.97;100.00;99095.19;4956140;28;20023;-77
2021/10/19 01:43:22;;;;;;;24.15;16.02;;;;;;;6.09;100.00;99111.44;4947486;28;20122;-77
2021/10/19 01:45:53;;;;;;;40.10;17.73;;;;;;;5.76;100.00;99095.75;4953708;28;20095;-77
2021/10/19 01:48:19;;;;;;;24.50;16.83;;;;;;;5.61;100.00;99098.09;4954355;28;20058;-77
2021/10/19 01:50:45;;;;;;;27.13;18.60;;;;;;;5.57;100.00;99088.78;4954907;28;20051;-77
2021/10/19 01:53:11;;;;;;;24.05;16.77;;;;;;;5.58;100.00;99083.09;4955976;28;20027;-77
2021/10/19 01:55:38;;;;;;;31.85;18.52;;;;;;;5.54;100.00;99079.22;4955847;28;20448;-78
2021/10/19 01:58:04;;;;;;;27.35;18.67;;;;;;;5.40;100.00;99070.47;4958390;28;20162;-77
2021/10/19 02:00:30;;;;;;;25.30;17.60;;;;;;;5.39;100.00;99071.53;4956423;28;20083;-77
2021/10/19 02:02:55;;;;;;;28.10;18.98;;;;;;;5.46;100.00;99063.28;4954564;28;20035;-77
2021/10/19 02:05:20;;;;;;;24.25;18.05;;;;;;;5.67;100.00;99073.53;4955506;28;20023;-76
2021/10/19 02:07:46;;;;;;;25.38;16.80;;;;;;;5.91;100.00;99077.13;4955696;28;20035;-76
2021/10/19 02:10:12;;;;;;;23.27;16.98;;;;;;;5.91;100.00;99080.66;4973514;28;20037;-77
2021/10/19 02:12:38;;;;;;;25.27;17.15;;;;;;;6.12;100.00;99081.09;4972916;28;20555;-77
2021/10/19 02:15:06;;;;;;;27.55;17.15;;;;;;;6.09;100.00;99068.81;4974800;28;20039;-76
2021/10/19 02:17:32;;;;;;;28.77;17.25;;;;;;;6.22;100.00;99075.88;4967424;28;20109;-76
2021/10/19 02:20:00;;;;;;;25.83;17.02;;;;;;;6.10;100.00;99077.81;4974365;28;20118;-76
2021/10/19 02:22:28;;;;;;;25.15;15.73;;;;;;;6.19;100.00;99071.78;4974398;28;20432;-76
2021/10/19 02:24:54;;;;;;;24.70;16.02;;;;;;;6.27;100.00;99084.97;4974255;28;20046;-76
2021/10/19 02:27:19;;;;;;;25.08;15.70;;;;;;;6.31;100.00;99088.03;4974218;28;20121;-76
2021/10/19 02:29:45;;;;;;;40.47;18.85;;;;;;;6.25;100.00;99080.84;4968525;28;20030;-76
2021/10/19 02:32:10;;;;;;;39.95;18.20;;;;;;;6.16;100.00;99083.13;4973690;28;20041;-77
2021/10/19 02:34:36;;;;;;;82.47;19.80;;;;;;;6.15;100.00;99081.44;4972962;28;20043;-76
2021/10/19 02:37:02;;;;;;;73.88;19.10;;;;;;;6.14;100.00;99082.50;4954620;28;20022;-76
2021/10/19 02:39:27;;;;;;;41.90;19.50;;;;;;;6.00;100.00;99075.69;4953938;28;20031;-76
2021/10/19 02:41:52;;;;;;;47.50;18.92;;;;;;;5.95;100.00;99075.59;4954131;28;20027;-76
2021/10/19 02:44:18;;;;;;;45.25;17.80;;;;;;;5.96;100.00;99082.66;4964728;28;20168;-76
2021/10/19 02:46:43;;;;;;;64.60;20.50;;;;;;;5.94;100.00;99082.06;4969580;28;20031;-77
2021/10/19 02:49:09;;;;;;;40.67;20.77;;;;;;;6.02;100.00;99083.59;4973563;28;20054;-77
2021/10/19 02:51:34;;;;;;;108.45;21.88;;;;;;;5.94;100.00;99068.50;4967107;28;20054;-76
2021/10/19 02:54:00;;;;;;;65.35;20.58;;;;;;;5.92;100.00;99070.59;4973616;28;20023;-76
2021/10/19 02:56:25;;;;;;;45.55;21.23;;;;;;;6.11;100.00;99074.84;4973182;28;20615;-77
2021/10/19 02:58:51;;;;;;;47.05;21.75;;;;;;;6.21;100.00;99074.22;4973956;28;20066;-77
2021/10/19 03:01:16;;;;;;;44.55;19.65;;;;;;;6.21;100.00;99072.34;4965009;28;20031;-76
2021/10/19 03:03:43;;;;;;;32.15;20.48;;;;;;;6.16;100.00;99080.41;4970036;28;20035;-76
2021/10/19 03:06:08;;;;;;;98.55;20.75;;;;;;;6.01;100.00;99071.94;4972607;28;20485;-77
2021/10/19 03:08:34;;;;;;;70.57;20.25;;;;;;;6.01;100.00;99088.22;4978305;28;20041;-77
2021/10/19 03:10:59;;;;;;;84.57;21.73;;;;;;;5.72;100.00;99079.09;4977968;28;20035;-76
2021/10/19 03:13:27;;;;;;;64.68;22.67;;;;;;;5.79;100.00;99079.81;4975653;28;20539;-77
2021/10/19 03:15:53;;;;;;;91.78;22.35;;;;;;;5.81;100.00;99076.84;4968978;28;20543;-77
2021/10/19 03:18:18;;;;;;;39.45;21.05;;;;;;;5.87;100.00;99075.94;4963822;28;20130;-76
2021/10/19 03:20:43;;;;;;;57.83;21.55;;;;;;;5.84;100.00;99085.34;4972664;28;20034;-76
2021/10/19 03:23:09;;;;;;;34.30;21.15;;;;;;;5.86;100.00;99082.41;4972646;28;20046;-77
2021/10/19 03:25:35;;;;;;;35.72;21.27;;;;;;;5.84;100.00;99088.06;4972625;28;20443;-77
2021/10/19 03:28:00;;;;;;;39.20;20.55;;;;;;;5.80;100.00;99084.16;4970094;28;20379;-76
2021/10/19 03:30:26;;;;;;;32.35;19.38;;;;;;;6.02;100.00;99094.44;4965246;28;20058;-76
2021/10/19 03:32:51;;;;;;;32.22;19.73;;;;;;;6.19;100.00;99089.94;4971763;28;20033;-77
2021/10/19 03:35:16;;;;;;;29.50;19.55;;;;;;;6.31;100.00;99098.91;4955572;28;20057;-76
2021/10/19 03:37:42;;;;;;;29.35;18.95;;;;;;;6.25;100.00;99095.25;4972485;28;20089;-76
2021/10/19 03:40:08;;;;;;;34.90;20.98;;;;;;;6.29;100.00;99096.44;4970457;28;20081;-76
2021/10/19 03:42:35;;;;;;;33.33;18.50;;;;;;;6.34;100.00;99104.69;4972686;28;20045;-76
2021/10/19 03:45:00;;;;;;;35.55;20.27;;;;;;;6.34;100.00;99110.13;4969417;28;20027;-76
2021/10/19 03:47:25;;;;;;;35.28;19.35;;;;;;;6.40;100.00;99108.31;4965023;28;20387;-76
2021/10/19 03:49:51;;;;;;;29.73;18.52;;;;;;;6.38;100.00;99107.75;4972946;28;20027;-77
2021/10/19 03:52:16;;;;;;;26.40;17.35;;;;;;;6.28;100.00;99096.66;4974831;28;20089;-77
2021/10/19 03:54:42;;;;;;;27.35;17.90;;;;;;;6.22;100.00;99095.75;4968002;28;20384;-76
2021/10/19 03:57:07;;;;;;;35.35;18.42;;;;;;;6.15;100.00;99100.47;4971774;28;20038;-75
2021/10/19 03:59:33;;;;;;;29.40;17.73;;;;;;;6.03;100.00;99098.81;4973389;28;20069;-76
2021/10/19 04:01:59;;;;;;;29.17;18.27;;;;;;;6.04;100.00;99097.78;4969935;28;20472;-76
2021/10/19 04:04:24;;;;;;;26.35;17.83;;;;;;;6.08;100.00;99104.34;4973021;28;20093;-76
2021/10/19 04:06:50;;;;;;;29.95;17.73;;;;;;;6.22;100.00;99106.59;4974747;28;20010;-75
2021/10/19 04:09:15;;;;;;;30.92;19.00;;;;;;;6.15;100.00;99105.91;4992025;28;20428;-76
2021/10/19 04:11:41;;;;;;;30.35;18.13;;;;;;;6.12;100.00;99117.25;4975047;28;20041;-77
2021/10/19 04:14:07;;;;;;;31.05;19.63;;;;;;;6.06;100.00;99106.50;4974365;28;20035;-77
2021/10/19 04:16:34;;;;;;;29.63;18.50;;;;;;;6.08;100.00;99112.50;4971898;28;20027;-76
2021/10/19 04:19:00;;;;;;;27.98;18.05;;;;;;;5.99;100.00;99105.78;4971276;28;20042;-76
2021/10/19 04:21:25;;;;;;;27.25;17.95;;;;;;;6.04;100.00;99100.50;4971707;28;20030;-76
2021/10/19 04:23:51;;;;;;;27.65;18.30;;;;;;;5.95;100.00;99107.34;4967297;28;20097;-77
2021/10/19 04:26:16;;;;;;;33.15;18.65;;;;;;;6.01;100.00;99112.66;4971855;28;20792;-77
2021/10/19 04:28:43;;;;;;;27.73;18.50;;;;;;;6.05;100.00;99102.94;4971749;28;20492;-77
2021/10/19 04:31:08;;;;;;;29.35;18.50;;;;;;;6.10;100.00;99102.25;4968730;28;20054;-76
2021/10/19 04:33:34;;;;;;;29.83;17.90;;;;;;;6.06;100.00;99099.19;4952313;28;20062;-76
2021/10/19 04:35:59;;;;;;;29.13;18.08;;;;;;;6.14;100.00;99098.81;4951040;28;20027;-75
2021/10/19 04:38:25;;;;;;;29.02;18.33;;;;;;;6.10;100.00;99097.66;4944459;28;20388;-75
2021/10/19 04:40:50;;;;;;;33.28;19.08;;;;;;;6.14;100.00;99104.22;4952460;28;20114;-76
2021/10/19 04:43:17;;;;;;;29.52;18.85;;;;;;;6.15;100.00;99099.63;4952274;28;20487;-76
2021/10/19 04:45:42;;;;;;;40.58;19.35;;;;;;;6.10;100.00;99094.94;4952849;28;20362;-76
2021/10/19 04:48:08;;;;;;;30.90;20.23;;;;;;;6.17;100.00;99109.19;4952288;28;20051;-76
2021/10/19 04:50:34;;;;;;;32.55;20.17;;;;;;;6.17;100.00;99101.03;4952276;28;20485;-76
2021/10/19 04:53:01;;;;;;;28.63;19.75;;;;;;;6.24;100.00;99099.03;4951990;28;20031;-76
2021/10/19 04:55:26;;;;;;;30.05;19.83;;;;;;;6.26;100.00;99113.22;4951608;28;20023;-76
2021/10/19 04:57:52;;;;;;;34.20;19.10;;;;;;;6.36;100.00;99116.13;4947879;28;20034;-75
2021/10/19 05:00:17;;;;;;;33.70;20.08;;;;;;;6.46;100.00;99119.06;4943676;28;20066;-76
2021/10/19 05:02:45;;;;;;;32.97;19.88;;;;;;;6.54;100.00;99108.91;4951011;28;20031;-76
2021/10/19 05:05:10;;;;;;;29.80;17.40;;;;;;;6.47;100.00;99114.47;4936121;28;20031;-75
2021/10/19 05:07:36;;;;;;;33.05;18.67;;;;;;;6.47;100.00;99114.47;4956423;28;20090;-76
2021/10/19 05:10:01;;;;;;;33.05;19.15;;;;;;;6.33;100.00;99121.22;4952941;28;20041;-76
2021/10/19 05:12:26;;;;;;;33.35;18.60;;;;;;;6.35;100.00;99111.78;4961970;28;20057;-77
2021/10/19 05:14:52;;;;;;;29.48;17.20;;;;;;;6.47;100.00;99119.91;4963311;28;20122;-77
2021/10/19 05:17:17;;;;;;;32.35;18.20;;;;;;;6.48;100.00;99116.94;4964794;28;20031;-77
2021/10/19 05:19:43;;;;;;;49.60;18.25;;;;;;;6.34;100.00;99121.00;4967133;28;20038;-78
2021/10/19 05:22:08;;;;;;;39.15;20.20;;;;;;;6.16;100.00;99120.31;4969094;28;20094;-78
2021/10/19 05:24:33;;;;;;;32.17;18.15;;;;;;;6.17;100.00;99132.84;4968200;28;20066;-77
2021/10/19 05:26:59;;;;;;;32.40;19.73;;;;;;;6.10;100.00;99126.69;4959875;28;20023;-76
2021/10/19 05:29:24;;;;;;;39.90;19.92;;;;;;;6.24;100.00;99123.47;4960397;28;20129;-76
2021/10/19 05:31:50;;;;;;;40.20;19.05;;;;;;;6.07;100.00;99117.13;4959084;28;20413;-76
2021/10/19 05:34:16;;;;;;;36.70;20.10;;;;;;;6.01;100.00;99109.13;4955081;28;20461;-76
2021/10/19 05:36:42;;;;;;;34.88;20.65;;;;;;;5.93;100.00;99107.56;4972680;28;20046;-76
2021/10/19 05:39:07;;;;;;;52.20;21.40;;;;;;;5.77;100.00;99105.53;4968676;28;20082;-78
2021/10/19 05:41:32;;;;;;;64.32;22.10;;;;;;;5.67;100.00;99094.47;4954267;28;20125;-77
2021/10/19 05:43:58;;;;;;;46.17;21.70;;;;;;;5.67;100.00;99102.59;4962296;28;20023;-78
2021/10/19 05:46:23;;;;;;;45.08;22.48;;;;;;;5.96;100.00;99115.25;4964869;28;20117;-77
2021/10/19 05:48:49;;;;;;;88.07;21.95;;;;;;;5.97;100.00;99121.50;4976593;28;20050;-78
2021/10/19 05:51:14;;;;;;;45.88;21.77;;;;;;;6.10;100.00;99130.25;4977252;28;20470;-79
2021/10/19 05:53:39;;;;;;;49.90;23.70;;;;;;;6.22;100.00;99136.47;4969295;28;20043;-79
2021/10/19 05:56:05;;;;;;;43.25;21.42;;;;;;;6.35;100.00;99138.94;4978042;28;20815;-76
2021/10/19 05:58:30;;;;;;;39.20;20.65;;;;;;;6.45;100.00;99136.44;4962472;28;20477;-76
2021/10/19 06:00:57;;;;;;;39.50;21.90;;;;;;;6.41;100.00;99135.28;4956083;29;20031;-77
2021/10/19 06:03:22;;;;;;;38.05;19.85;;;;;;;6.52;100.00;99138.19;4956063;28;20020;-77
2021/10/19 06:05:48;;;;;;;39.08;19.75;;;;;;;6.56;100.00;99142.09;4951902;28;20035;-77
2021/10/19 06:08:14;;;;;;;40.08;19.98;;;;;;;6.46;100.00;99139.97;4965271;28;20110;-76
2021/10/19 06:10:39;;;;;;;56.42;20.85;;;;;;;6.38;100.00;99133.03;4968761;28;20018;-76
2021/10/19 06:13:05;;;;;;;49.75;20.75;;;;;;;6.43;100.00;99135.84;4957275;28;20138;-76
2021/10/19 06:15:30;;;;;;;38.75;19.58;;;;;;;6.45;100.00;99144.59;4957180;28;20073;-77
2021/10/19 06:17:55;;;;;;;38.55;20.55;;;;;;;6.59;100.00;99138.88;4957189;28;20035;-78
2021/10/19 06:20:21;;;;;;;44.97;21.10;;;;;;;6.55;100.00;99132.31;4955729;28;20420;-78
2021/10/19 06:22:46;;;;;;;47.00;21.02;;;;;;;6.53;100.00;99145.28;4971262;28;20037;-79
2021/10/19 06:25:12;;;;;;;41.88;19.90;;;;;;;6.56;100.00;99145.63;4965543;28;20043;-77
2021/10/19 06:27:37;;;;;;;47.25;21.13;;;;;;;6.71;100.00;99150.53;4957881;28;20477;-77
2021/10/19 06:30:04;;;;;;;38.28;19.38;;;;;;;6.67;100.00;99141.25;4965607;28;20102;-78
2021/10/19 06:32:29;;;;;;;37.92;20.65;;;;;;;6.78;100.00;99148.53;4958777;28;20681;-77
2021/10/19 06:34:55;;;;;;;65.30;21.90;;;;;;;6.61;100.00;99144.94;4971702;28;20034;-76
2021/10/19 06:37:20;;;;;;;100.43;22.23;;;;;;;6.61;100.00;99148.44;4969616;28;20018;-78
2021/10/19 06:39:46;;;;;;;53.58;22.05;;;;;;;6.64;100.00;99139.00;4979266;28;20038;-78
2021/10/19 06:42:12;;;;;;;49.45;21.27;;;;;;;6.78;100.00;99154.78;4977911;28;20115;-78
2021/10/19 06:44:37;;;;;;;54.38;21.38;;;;;;;6.70;100.00;99147.03;4972351;28;20088;-78
2021/10/19 06:47:03;;;;;;;109.28;22.02;;;;;;;6.89;100.00;99166.72;4978517;28;20141;-78
2021/10/19 06:49:28;;;;;;;56.25;24.23;;;;;;;6.78;100.00;99165.66;4977534;28;20403;-78
2021/10/19 06:51:54;;;;;;;68.75;21.13;;;;;;;6.87;100.00;99163.38;4973131;28;20470;-80
2021/10/19 06:54:19;;;;;;;80.43;21.50;;;;;;;6.67;100.00;99158.34;4977602;28;20023;-77
2021/10/19 06:56:44;;;;;;;81.93;23.25;;;;;;;6.50;100.00;99160.19;4965256;28;20030;-77
2021/10/19 06:59:10;;;;;;;86.38;22.90;;;;;;;6.35;100.00;99157.97;4963393;28;20046;-77
2021/10/19 07:01:35;;;;;;;45.15;22.40;;;;;;;6.51;100.00;99171.88;4972786;28;20035;-76
2021/10/19 07:04:01;;;;;;;46.75;23.20;;;;;;;6.55;100.00;99170.34;4973876;28;20035;-78
2021/10/19 07:06:26;;;;;;;70.38;25.52;;;;;;;6.47;100.00;99164.22;4976581;28;20078;-77
2021/10/19 07:08:53;;;;;;;72.13;26.92;;;;;;;6.37;100.00;99174.03;4972460;28;20494;-78
2021/10/19 07:11:19;;;;;;;91.25;32.17;;;;;;;6.51;100.00;99163.72;4967760;28;20491;-77
2021/10/19 07:13:44;;;;;;;124.88;33.55;;;;;;;6.48;100.00;99160.41;4974419;28;20019;-78
2021/10/19 07:16:10;;;;;;;107.78;31.25;;;;;;;6.46;100.00;99161.72;4976794;28;20475;-77
2021/10/19 07:18:35;;;;;;;71.50;28.42;;;;;;;6.76;100.00;99166.97;4976212;28;20054;-77
2021/10/19 07:21:01;;;;;;;66.75;26.25;;;;;;;6.84;100.00;99164.69;4975818;28;20078;-79
2021/10/19 07:23:26;;;;;;;116.68;28.63;;;;;;;6.92;100.00;99177.91;4980527;28;20019;-78
2021/10/19 07:25:52;;;;;;;66.10;25.27;;;;;;;6.98;100.00;99176.13;4977560;28;20038;-80
2021/10/19 07:28:17;;;;;;;76.43;26.33;;;;;;;6.91;100.00;99172.72;4982647;28;20100;-80
2021/10/19 07:30:43;;;;;;;64.32;26.60;;;;;;;6.94;100.00;99169.53;4975921;28;20027;-79
2021/10/19 07:33:09;;;;;;;86.97;26.77;;;;;;;7.01;100.00;99172.94;4968448;28;20033;-79
2021/10/19 07:35:34;;;;;;;51.60;26.15;;;;;;;7.01;100.00;99164.78;4958993;28;20031;-79
2021/10/19 07:38:00;;;;;;;56.67;26.23;;;;;;;7.05;100.00;99179.53;4977185;28;20035;-79
2021/10/19 07:40:25;;;;;;;66.78;28.58;;;;;;;7.02;100.00;99180.00;4979297;28;20075;-79
2021/10/19 07:42:51;;;;;;;54.75;26.70;;;;;;;6.97;100.00;99169.03;4974057;28;20407;-80
2021/10/19 07:45:21;;;;;;;66.10;27.30;;;;;;;7.04;100.00;99164.28;4952445;28;20027;-79
2021/10/19 07:47:47;;;;;;;65.32;24.92;;;;;;;7.20;100.00;99163.50;4968054;28;20023;-79
2021/10/19 07:50:20;;;;;;;51.45;25.50;;;;;;;7.28;100.00;99160.38;4966763;28;20047;-79
2021/10/19 07:52:47;;;;;;;51.28;25.00;;;;;;;7.39;100.00;99180.47;4963559;28;20401;-79
2021/10/19 07:55:13;;;;;;;56.53;25.90;;;;;;;7.37;100.00;99179.84;4962377;28;20427;-79
2021/10/19 07:57:47;;;;;;;53.88;26.58;;;;;;;7.36;100.00;99176.31;4962229;28;20115;-79
2021/10/19 08:00:13;;;;;;;58.10;25.63;;;;;;;7.51;100.00;99181.22;4964320;28;20554;-77
2021/10/19 08:02:42;;;;;;;53.13;27.08;;;;;;;7.53;100.00;99173.63;4958335;28;20130;-78
2021/10/19 08:05:15;;;;;;;60.92;24.60;;;;;;;7.67;100.00;99171.41;4963977;28;20027;-78
2021/10/19 08:07:42;;;;;;;50.15;25.60;;;;;;;7.81;100.00;99170.00;4965667;28;20033;-78
2021/10/19 08:10:09;;;;;;;49.72;25.48;;;;;;;7.66;100.00;99170.59;4964710;28;20027;-78
2021/10/19 08:12:35;;;;;;;49.78;25.25;;;;;;;7.39;100.00;99175.81;4964738;28;20069;-79
2021/10/19 08:15:04;;;;;;;54.90;25.42;;;;;;;7.75;100.00;99176.44;4962904;28;20030;-78
2021/10/19 08:17:30;;;;;;;49.38;24.65;;;;;;;7.81;100.00;99197.25;4958592;28;20034;-78
2021/10/19 08:20:01;;;;;;;54.90;25.42;;;;;;;7.55;100.00;99187.81;4964935;28;20434;-79
2021/10/19 08:22:28;;;;;;;49.28;26.67;;;;;;;7.55;100.00;99188.63;4968410;28;20030;-79
2021/10/19 08:24:58;;;;;;;50.25;25.58;;;;;;;7.45;100.00;99174.88;4960099;28;20025;-78
2021/10/19 08:27:24;;;;;;;51.42;26.48;;;;;;;7.57;100.00;99180.22;4965217;28;20042;-79
2021/10/19 08:29:50;;;;;;;43.08;25.50;;;;;;;7.81;100.00;99170.84;4965901;28;20035;-78
2021/10/19 08:32:16;;;;;;;44.13;24.63;;;;;;;8.03;100.00;99162.75;4953379;28;20030;-78
2021/10/19 08:34:41;;;;;;;47.08;24.63;;;;;;;8.25;100.00;99160.06;4963652;28;20577;-78
2021/10/19 08:37:07;;;;;;;71.57;27.25;;;;;;;7.96;100.00;99156.63;4961253;28;20038;-78
2021/10/19 08:39:32;;;;;;;40.47;24.73;;;;;;;8.04;100.00;99143.44;4957135;28;20038;-78
2021/10/19 08:41:58;;;;;;;44.00;27.08;;;;;;;8.20;100.00;99151.81;4961966;28;20064;-75
2021/10/19 08:44:23;;;;;;;38.58;25.15;;;;;;;8.42;100.00;99155.44;4962194;28;20031;-74
2021/10/19 08:46:49;;;;;;;40.40;25.10;;;;;;;8.73;100.00;99146.59;4959827;28;20030;-75
2021/10/19 08:49:14;;;;;;;39.65;23.00;;;;;;;9.12;100.00;99155.50;4954084;28;20543;-76
2021/10/19 08:51:41;;;;;;;43.13;25.40;;;;;;;9.03;100.00;99163.31;4959818;28;20043;-75
2021/10/19 08:54:07;;;;;;;40.00;24.50;;;;;;;9.14;100.00;99165.09;4962948;28;20392;-76
2021/10/19 08:56:37;;;;;;;40.22;25.25;;;;;;;8.96;100.00;99168.13;4959792;28;20039;-75
2021/10/19 08:59:03;;;;;;;38.50;24.90;;;;;;;8.85;100.00;99160.91;4962181;28;20026;-76
2021/10/19 09:01:36;;;;;;;38.10;24.08;;;;;;;9.06;100.00;99170.16;4969528;28;20023;-76
2021/10/19 09:04:10;;;;;;;38.72;23.50;;;;;;;9.39;100.00;99160.97;4971312;28;20448;-76
2021/10/19 09:06:37;;;;;;;38.63;25.08;;;;;;;9.60;100.00;99152.72;4964574;28;20668;-78
2021/10/19 09:09:16;;;;;;;38.17;23.38;;;;;;;10.35;100.00;99154.41;4961096;28;20023;-78
2021/10/19 09:11:47;;;;;;;35.58;22.52;;;;;;;10.43;100.00;99167.56;4973111;28;20105;-78
2021/10/19 09:14:17;;;;;;;36.75;22.30;;;;;;;10.66;100.00;99161.69;4964439;28;20423;-78
2021/10/19 09:16:52;;;;;;;41.33;22.83;;;;;;;11.14;98.60;99154.22;4966221;28;20026;-79
2021/10/19 09:19:19;;;;;;;;;;;;;;;12.11;94.20;99145.03;4973901;28;20041;-79
2021/10/19 09:21:50;;;;;;;33.35;21.80;;;;;;;11.96;91.32;99147.78;4995783;28;20016;-79
2021/10/19 09:24:24;;;;;;;33.53;22.15;;;;;;;11.34;92.94;99150.72;4974838;28;20058;-78
2021/10/19 09:27:05;;;;;;;36.90;23.88;;;;;;;11.21;94.55;99149.31;4964700;28;20535;-78
2021/10/19 09:29:35;;;;;;;38.03;22.50;;;;;;;11.75;92.66;99146.94;4964757;28;20031;-78
2021/10/19 09:32:03;;;;;;;33.72;22.85;;;;;;;12.03;90.23;99143.66;4969062;28;20026;-78
2021/10/19 09:34:32;;;;;;;37.55;23.67;;;;;;;12.24;88.01;99149.97;4974835;28;20031;-78
2021/10/19 09:37:01;;;;;;;35.15;23.92;;;;;;;12.22;88.96;99146.66;4972746;28;20027;-78
2021/10/19 09:39:40;;;;;;;33.20;21.15;;;;;;;12.39;88.11;99129.91;4971232;28;20034;-77
2021/10/19 09:42:31;;;;;;;33.35;22.65;;;;;;;12.76;84.61;99144.88;4970017;28;20536;-77
2021/10/19 09:45:02;;;;;;;41.80;23.00;;;;;;;12.70;84.88;99142.44;4968232;28;20031;-77
2021/10/19 09:47:29;;;;;;;35.28;23.55;;;;;;;12.86;84.88;99136.63;4971258;28;20498;-78
2021/10/19 09:49:56;;;;;;;33.90;22.80;;;;;;;13.03;82.96;99138.19;4967394;28;20054;-78
2021/10/19 09:52:22;;;;;;;31.23;21.63;;;;;;;12.46;85.17;99136.75;4966410;28;20472;-78
2021/10/19 09:54:52;;;;;;;43.45;25.38;;;;;;;12.48;87.02;99125.47;4964306;28;20030;-78
2021/10/19 09:57:18;;;;;;;41.30;26.55;;;;;;;12.56;87.93;99114.75;4961062;28;20137;-78
2021/10/19 09:59:44;;;;;;;39.03;25.90;;;;;;;12.34;88.98;99111.53;4959247;28;20475;-77
2021/10/19 10:02:13;;;;;;;43.50;27.27;;;;;;;12.03;89.50;99110.75;4964594;28;20445;-77
2021/10/19 10:04:40;;;;;;;39.83;24.67;;;;;;;12.01;90.73;99121.19;4964333;28;20726;-78
2021/10/19 10:07:10;;;;;;;47.95;28.65;;;;;;;12.13;91.36;99121.72;4959287;28;20570;-78
2021/10/19 10:09:36;;;;;;;45.03;27.38;;;;;;;12.43;90.01;99114.53;4963451;28;20695;-78
2021/10/19 10:12:07;;;;;;;39.75;25.50;;;;;;;12.74;87.75;99116.06;4965098;28;20046;-77
2021/10/19 10:14:45;;;;;;;42.78;26.50;;;;;;;12.71;87.23;99111.16;4967560;28;20023;-78
2021/10/19 10:17:11;;;;;;;44.17;26.23;;;;;;;12.88;86.55;99112.44;4964369;28;20505;-77
2021/10/19 10:19:40;;;;;;;45.75;27.45;;;;;;;13.31;84.20;99104.53;4965091;28;20110;-78
2021/10/19 10:22:16;;;;;;;47.45;27.52;;;;;;;13.67;82.08;99103.16;4963411;28;20038;-79
2021/10/19 10:24:42;;;;;;;43.53;26.48;;;;;;;13.58;82.34;99104.91;4963897;28;20059;-78
2021/10/19 10:27:15;;;;;;;47.42;25.92;;;;;;;13.38;83.20;99100.34;4960262;28;20077;-78
2021/10/19 10:29:44;;;;;;;40.05;27.25;;;;;;;13.79;79.77;99095.38;4957718;28;20063;-78
2021/10/19 10:32:33;;;;;;;46.35;26.58;;;;;;;13.83;79.44;99101.13;4962337;28;20038;-78
2021/10/19 10:35:05;;;;;;;43.58;24.88;;;;;;;14.12;79.13;99092.88;4962328;28;20063;-78
2021/10/19 10:37:57;;;;;;;37.92;26.23;;;;;;;15.05;74.76;99106.13;4961798;28;20028;-77
2021/10/19 10:40:41;;;;;;;38.90;25.50;;;;;;;14.90;74.66;99094.22;4960351;28;20141;-78
2021/10/19 10:43:36;;;;;;;37.08;26.08;;;;;;;14.65;75.17;99094.53;4963523;28;20034;-77
2021/10/19 10:46:20;;;;;;;41.42;26.45;;;;;;;13.98;77.55;99086.41;4949308;28;20588;-78
2021/10/19 10:48:46;;;;;;;45.60;27.80;;;;;;;13.69;79.71;99081.69;4958970;28;20026;-78
2021/10/19 10:51:14;;;;;;;38.45;25.23;;;;;;;13.64;80.76;99086.44;4964089;28;20043;-77
2021/10/19 10:53:45;;;;;;;41.88;26.38;;;;;;;13.21;82.78;99077.13;4964339;28;20448;-77
2021/10/19 10:56:13;;;;;;;39.25;26.15;;;;;;;13.66;80.46;99068.53;4964596;28;20022;-77
2021/10/19 10:58:40;;;;;;;37.03;24.63;;;;;;;14.36;78.10;99068.97;4963764;28;20046;-78
2021/10/19 11:01:16;;;;;;;42.08;25.65;;;;;;;14.63;75.44;99071.94;4961449;28;20031;-76
2021/10/19 11:03:44;;;;;;;;;;;;;;;14.39;76.69;99076.66;4961599;28;20027;-77
2021/10/19 11:06:13;;;;;;;39.53;26.02;;;;;;;13.99;77.93;99060.53;4963874;28;19976;-77
2021/10/19 11:08:38;;;;;;;39.40;25.63;;;;;;;13.49;80.35;99057.13;4972191;28;20020;-78
2021/10/19 11:11:06;;;;;;;42.90;27.85;;;;;;;13.25;82.03;99056.22;4973163;28;20007;-80
2021/10/19 11:13:59;;;;;;;39.50;26.45;;;;;;;13.45;81.72;99042.31;4982595;28;20042;-77
2021/10/19 11:16:36;;;;;;;41.25;27.98;;;;;;;13.09;83.51;99044.53;4970404;28;20035;-78